Time,TemperatureF,DewpointF,PressureIn,WindDirection,WindDirectionDegrees,WindSpeedMPH,WindSpeedGustMPH,Humidity,HourlyPrecipIn,Conditions,Clouds,dailyrainin,SolarRadiationWatts/m^2,SoftwareType,DateUTC
2013-12-01 00:12:00,31.3,28.0,30.28,WNW,284,0.0,1.0,88,0.00,,,0.00,0,weatherlink.com 1.10,2013-11-30 23:12:00,
2013-12-01 00:27:00,31.5,28.0,30.28,WNW,285,0.0,0.0,88,0.00,,,0.00,0,weatherlink.com 1.10,2013-11-30 23:27:00,
2013-12-01 00:42:00,31.5,28.0,30.28,WNW,287,0.0,0.0,88,0.00,,,0.00,0,weatherlink.com 1.10,2013-11-30 23:42:00,
2013-12-01 00:57:00,31.2,28.0,30.27,WNW,286,0.0,1.0,88,0.00,,,0.00,0,weatherlink.com 1.10,2013-11-30 23:57:00,
2013-12-01 01:12:00,30.8,28.0,30.28,WNW,295,0.0,2.0,88,0.00,,,0.00,0,weatherlink.com 1.10,2013-12-01 00:12:00,
2013-12-01 01:27:00,30.2,27.0,30.28,NNW,333,0.0,3.0,88,0.00,,,0.00,0,weatherlink.com 1.10,2013-12-01 00:27:00,
2013-12-01 01:42:00,30.1,27.0,30.28,North,360,0.0,0.0,89,0.00,,,0.00,0,weatherlink.com 1.10,2013-12-01 00:42:00,
2013-12-01 01:57:00,29.7,27.0,30.29,NNW,333,0.0,0.0,89,0.00,,,0.00,0,weatherlink.com 1.10,2013-12-01 00:57:00,
2013-12-01 02:12:00,29.5,27.0,30.29,NNW,332,0.0,1.0,89,0.00,,,0.00,0,weatherlink.com 1.10,2013-12-01 01:12:00,
2013-12-01 02:27:00,29.9,27.0,30.30,North,360,0.0,1.0,90,0.00,,,0.00,0,weatherlink.com 1.10,2013-12-01 01:27:00,
2013-12-01 02:43:00,30.1,28.0,30.30,NNW,333,0.0,0.0,90,0.00,,,0.00,0,weatherlink.com 1.10,2013-12-01 01:43:00,
2013-12-01 02:58:00,30.2,28.0,30.30,NNW,333,0.0,0.0,90,0.00,,,0.00,0,weatherlink.com 1.10,2013-12-01 01:58:00,
2013-12-01 03:13:00,30.0,28.0,30.30,NNW,333,0.0,0.0,90,0.00,,,0.00,0,weatherlink.com 1.10,2013-12-01 02:13:00,
2013-12-01 03:28:00,30.0,28.0,30.29,North,360,0.0,1.0,90,0.00,,,0.00,0,weatherlink.com 1.10,2013-12-01 02:28:00,
2013-12-01 03:43:00,30.1,28.0,30.29,NNW,333,0.0,0.0,90,0.00,,,0.00,0,weatherlink.com 1.10,2013-12-01 02:43:00,
2013-12-01 03:58:00,30.2,28.0,30.29,NNW,333,0.0,0.0,90,0.00,,,0.00,0,weatherlink.com 1.10,2013-12-01 02:58:00,
2013-12-01 04:13:00,30.4,28.0,30.30,NNW,333,0.0,0.0,90,0.00,,,0.00,0,weatherlink.com 1.10,2013-12-01 03:13:00,
2013-12-01 04:28:00,30.5,28.0,30.30,North,360,0.0,0.0,90,0.00,,,0.00,0,weatherlink.com 1.10,2013-12-01 03:28:00,
2013-12-01 04:43:00,30.4,28.0,30.30,NNW,333,0.0,1.0,90,0.00,,,0.00,0,weatherlink.com 1.10,2013-12-01 03:43:00,
2013-12-01 04:58:00,30.4,28.0,30.29,NNW,334,0.0,0.0,90,0.00,,,0.00,0,weatherlink.com 1.10,2013-12-01 03:58:00,
2013-12-01 05:13:00,30.4,28.0,30.30,NNW,333,0.0,2.0,90,0.00,,,0.00,0,weatherlink.com 1.10,2013-12-01 04:13:00,
2013-12-01 05:28:00,30.7,28.0,30.30,NNW,336,0.0,1.0,91,0.00,,,0.00,0,weatherlink.com 1.10,2013-12-01 04:28:00,
2013-12-01 05:43:00,30.7,28.0,30.30,NNW,333,0.0,1.0,91,0.00,,,0.00,0,weatherlink.com 1.10,2013-12-01 04:43:00,
2013-12-01 05:58:00,30.6,28.0,30.29,NNW,332,0.0,0.0,90,0.00,,,0.00,0,weatherlink.com 1.10,2013-12-01 04:58:00,
2013-12-01 06:13:00,30.4,28.0,30.30,North,360,0.0,1.0,90,0.00,,,0.00,0,weatherlink.com 1.10,2013-12-01 05:13:00,
2013-12-01 06:28:00,30.3,28.0,30.30,NNW,333,0.0,0.0,90,0.00,,,0.00,0,weatherlink.com 1.10,2013-12-01 05:28:00,
2013-12-01 06:43:00,30.2,28.0,30.30,NNW,333,0.0,1.0,90,0.00,,,0.00,0,weatherlink.com 1.10,2013-12-01 05:43:00,
2013-12-01 06:58:00,30.3,28.0,30.31,NNW,331,0.0,1.0,91,0.00,,,0.00,0,weatherlink.com 1.10,2013-12-01 05:58:00,
2013-12-01 07:13:00,30.8,29.0,30.32,NNW,333,0.0,1.0,91,0.00,,,0.00,0,weatherlink.com 1.10,2013-12-01 06:13:00,
2013-12-01 07:28:00,31.0,29.0,30.32,North,360,0.0,0.0,91,0.00,,,0.00,18,weatherlink.com 1.10,2013-12-01 06:28:00,
2013-12-01 07:43:00,33.4,31.0,30.33,NNW,333,0.0,0.0,89,0.00,,,0.00,40,weatherlink.com 1.10,2013-12-01 06:43:00,
2013-12-01 07:58:00,36.0,32.0,30.32,NNW,333,0.0,0.0,86,0.00,,,0.00,81,weatherlink.com 1.10,2013-12-01 06:58:00,
2013-12-01 08:13:00,38.5,32.0,30.33,North,360,0.0,0.0,78,0.00,,,0.00,100,weatherlink.com 1.10,2013-12-01 07:13:00,
2013-12-01 08:28:00,40.2,34.0,30.33,NNW,333,0.0,0.0,78,0.00,,,0.00,132,weatherlink.com 1.10,2013-12-01 07:28:00,
2013-12-01 08:43:00,41.7,34.0,30.33,WNW,285,0.0,1.0,73,0.00,,,0.00,165,weatherlink.com 1.10,2013-12-01 07:43:00,
2013-12-01 08:58:00,42.7,33.0,30.33,North,360,0.0,1.0,69,0.00,,,0.00,195,weatherlink.com 1.10,2013-12-01 07:58:00,
2013-12-01 09:13:00,43.0,34.0,30.34,WNW,289,0.0,1.0,70,0.00,,,0.00,227,weatherlink.com 1.10,2013-12-01 08:13:00,
2013-12-01 09:28:00,44.5,34.0,30.34,West,265,0.0,2.0,67,0.00,,,0.00,260,weatherlink.com 1.10,2013-12-01 08:28:00,
2013-12-01 09:43:00,44.5,34.0,30.34,WSW,246,0.0,2.0,66,0.00,,,0.00,285,weatherlink.com 1.10,2013-12-01 08:43:00,
2013-12-01 09:58:00,46.0,35.0,30.34,West,264,0.0,1.0,65,0.00,,,0.00,304,weatherlink.com 1.10,2013-12-01 08:58:00,
2013-12-01 10:13:00,46.5,35.0,30.33,West,267,0.0,1.0,64,0.00,,,0.00,322,weatherlink.com 1.10,2013-12-01 09:13:00,
2013-12-01 10:29:00,46.9,35.0,30.34,North,360,0.0,3.0,64,0.00,,,0.00,332,weatherlink.com 1.10,2013-12-01 09:29:00,
2013-12-01 10:44:00,47.8,35.0,30.33,West,265,0.0,2.0,62,0.00,,,0.00,345,weatherlink.com 1.10,2013-12-01 09:44:00,
2013-12-01 10:59:00,51.3,37.0,30.32,North,355,3.0,6.0,58,0.00,,,0.00,352,weatherlink.com 1.10,2013-12-01 09:59:00,
2013-12-01 11:14:00,54.0,37.0,30.32,NNW,348,0.0,6.0,53,0.00,,,0.00,338,weatherlink.com 1.10,2013-12-01 10:14:00,
2013-12-01 11:29:00,51.9,36.0,30.32,WSW,250,0.0,6.0,56,0.00,,,0.00,350,weatherlink.com 1.10,2013-12-01 10:29:00,
2013-12-01 11:44:00,52.4,36.0,30.31,NW,323,0.0,5.0,55,0.00,,,0.00,353,weatherlink.com 1.10,2013-12-01 10:44:00,
2013-12-01 11:59:00,52.9,35.0,30.31,NNW,331,3.0,5.0,51,0.00,,,0.00,352,weatherlink.com 1.10,2013-12-01 10:59:00,
2013-12-01 12:14:00,51.4,35.0,30.31,North,360,0.0,4.0,54,0.00,,,0.00,341,weatherlink.com 1.10,2013-12-01 11:14:00,
2013-12-01 12:29:00,51.9,35.0,30.31,WNW,301,3.0,4.0,53,0.00,,,0.00,330,weatherlink.com 1.10,2013-12-01 11:29:00,
2013-12-01 12:44:00,50.2,34.0,30.31,WNW,295,1.0,4.0,55,0.00,,,0.00,316,weatherlink.com 1.10,2013-12-01 11:44:00,
2013-12-01 13:00:00,52.2,35.0,30.31,North,360,0.0,8.0,52,0.00,,,0.00,299,weatherlink.com 1.10,2013-12-01 12:00:00,
2013-12-01 13:14:00,49.5,34.0,30.31,NNE,15,0.0,4.0,55,0.00,,,0.00,281,weatherlink.com 1.10,2013-12-01 12:14:00,
2013-12-01 13:29:00,48.4,33.0,30.30,North,360,2.0,5.0,55,0.00,,,0.00,248,weatherlink.com 1.10,2013-12-01 12:29:00,
2013-12-01 13:44:00,47.0,33.0,30.30,South,186,0.0,5.0,58,0.00,,,0.00,218,weatherlink.com 1.10,2013-12-01 12:44:00,
2013-12-01 13:59:00,46.4,33.0,30.30,WNW,285,2.0,4.0,59,0.00,,,0.00,176,weatherlink.com 1.10,2013-12-01 12:59:00,
2013-12-01 14:14:00,45.7,32.0,30.30,West,270,0.0,7.0,59,0.00,,,0.00,141,weatherlink.com 1.10,2013-12-01 13:14:00,
2013-12-01 14:29:00,45.0,32.0,30.29,WSW,240,0.0,4.0,61,0.00,,,0.00,111,weatherlink.com 1.10,2013-12-01 13:29:00,
2013-12-01 14:44:00,44.0,32.0,30.29,NW,321,2.0,6.0,62,0.00,,,0.00,23,weatherlink.com 1.10,2013-12-01 13:44:00,
2013-12-01 14:59:00,42.8,32.0,30.29,NW,309,1.0,4.0,66,0.00,,,0.00,18,weatherlink.com 1.10,2013-12-01 13:59:00,
2013-12-01 15:14:00,41.9,32.0,30.29,North,360,1.0,6.0,69,0.00,,,0.00,14,weatherlink.com 1.10,2013-12-01 14:14:00,
2013-12-01 15:29:00,41.4,33.0,30.29,South,175,0.0,2.0,71,0.00,,,0.00,11,weatherlink.com 1.10,2013-12-01 14:29:00,
2013-12-01 15:44:00,41.1,33.0,30.30,North,360,0.0,1.0,72,0.00,,,0.00,5,weatherlink.com 1.10,2013-12-01 14:44:00,
2013-12-01 15:59:00,40.6,32.0,30.30,WNW,293,0.0,1.0,72,0.00,,,0.00,0,weatherlink.com 1.10,2013-12-01 14:59:00,
2013-12-01 16:14:00,40.0,32.0,30.30,WNW,299,0.0,0.0,72,0.00,,,0.00,0,weatherlink.com 1.10,2013-12-01 15:14:00,
2013-12-01 16:29:00,39.4,31.0,30.30,WNW,296,0.0,0.0,73,0.00,,,0.00,0,weatherlink.com 1.10,2013-12-01 15:29:00,
2013-12-01 16:44:00,38.6,31.0,30.29,WNW,298,0.0,0.0,74,0.00,,,0.00,0,weatherlink.com 1.10,2013-12-01 15:44:00,
2013-12-01 16:59:00,37.9,31.0,30.29,WNW,298,0.0,0.0,75,0.00,,,0.00,0,weatherlink.com 1.10,2013-12-01 15:59:00,
2013-12-01 17:14:00,37.1,31.0,30.29,WNW,296,0.0,1.0,77,0.00,,,0.00,0,weatherlink.com 1.10,2013-12-01 16:14:00,
2013-12-01 17:29:00,36.5,30.0,30.29,WNW,296,0.0,0.0,78,0.00,,,0.00,0,weatherlink.com 1.10,2013-12-01 16:29:00,
2013-12-01 17:44:00,36.0,30.0,30.29,WNW,298,0.0,1.0,79,0.00,,,0.00,0,weatherlink.com 1.10,2013-12-01 16:44:00,
2013-12-01 17:59:00,35.9,31.0,30.29,North,360,0.0,0.0,81,0.00,,,0.00,0,weatherlink.com 1.10,2013-12-01 16:59:00,
2013-12-01 18:14:00,35.9,31.0,30.30,WNW,301,0.0,0.0,82,0.00,,,0.00,0,weatherlink.com 1.10,2013-12-01 17:14:00,
2013-12-01 18:29:00,39.3,37.0,30.30,WNW,295,0.0,0.0,91,0.00,,,0.00,0,weatherlink.com 1.10,2013-12-01 17:29:00,
2013-12-01 18:44:00,37.6,33.0,30.30,WNW,298,0.0,1.0,84,0.00,,,0.00,0,weatherlink.com 1.10,2013-12-01 17:44:00,
2013-12-01 18:59:00,36.5,32.0,30.29,SSW,211,0.0,2.0,84,0.00,,,0.00,0,weatherlink.com 1.10,2013-12-01 17:59:00,
2013-12-01 19:14:00,36.3,32.0,30.29,SW,215,0.0,1.0,84,0.00,,,0.00,0,weatherlink.com 1.10,2013-12-01 18:14:00,
2013-12-01 19:29:00,36.3,32.0,30.29,SW,214,0.0,1.0,83,0.00,,,0.00,0,weatherlink.com 1.10,2013-12-01 18:29:00,
2013-12-01 19:44:00,36.2,32.0,30.28,SW,214,0.0,0.0,83,0.00,,,0.00,0,weatherlink.com 1.10,2013-12-01 18:44:00,
2013-12-01 19:59:00,36.2,31.0,30.28,SSW,202,0.0,2.0,82,0.00,,,0.00,0,weatherlink.com 1.10,2013-12-01 18:59:00,
2013-12-01 20:14:00,36.1,31.0,30.28,SSW,205,0.0,1.0,83,0.00,,,0.00,0,weatherlink.com 1.10,2013-12-01 19:14:00,
2013-12-01 20:29:00,36.4,31.0,30.28,SSW,195,0.0,1.0,82,0.00,,,0.00,0,weatherlink.com 1.10,2013-12-01 19:29:00,
2013-12-01 20:44:00,36.6,31.0,30.28,SW,235,2.0,6.0,81,0.00,,,0.00,0,weatherlink.com 1.10,2013-12-01 19:44:00,
2013-12-01 20:59:00,37.2,32.0,30.29,NNE,17,0.0,4.0,80,0.00,,,0.00,0,weatherlink.com 1.10,2013-12-01 19:59:00,
2013-12-01 21:14:00,37.7,32.0,30.28,North,360,0.0,5.0,79,0.00,,,0.00,0,weatherlink.com 1.10,2013-12-01 20:14:00,
2013-12-01 21:29:00,38.0,31.0,30.29,North,360,3.0,4.0,77,0.00,,,0.00,0,weatherlink.com 1.10,2013-12-01 20:29:00,
2013-12-01 21:44:00,38.1,31.0,30.29,North,360,1.0,6.0,76,0.00,,,0.00,0,weatherlink.com 1.10,2013-12-01 20:44:00,
2013-12-01 21:59:00,38.2,31.0,30.29,WNW,296,0.0,5.0,76,0.00,,,0.00,0,weatherlink.com 1.10,2013-12-01 20:59:00,
2013-12-01 22:14:00,38.0,31.0,30.29,North,360,2.0,5.0,76,0.00,,,0.00,0,weatherlink.com 1.10,2013-12-01 21:14:00,
2013-12-01 22:29:00,37.9,31.0,30.29,SW,232,1.0,7.0,76,0.00,,,0.00,0,weatherlink.com 1.10,2013-12-01 21:29:00,
2013-12-01 22:44:00,37.8,31.0,30.29,West,281,0.0,5.0,76,0.00,,,0.00,0,weatherlink.com 1.10,2013-12-01 21:44:00,
2013-12-01 22:59:00,37.5,31.0,30.29,North,5,0.0,6.0,77,0.00,,,0.00,0,weatherlink.com 1.10,2013-12-01 21:59:00,
2013-12-01 23:14:00,37.7,31.0,30.29,North,360,0.0,7.0,77,0.00,,,0.00,0,weatherlink.com 1.10,2013-12-01 22:14:00,
2013-12-01 23:29:00,37.8,31.0,30.29,South,172,2.0,7.0,77,0.00,,,0.00,0,weatherlink.com 1.10,2013-12-01 22:29:00,
2013-12-01 23:44:00,38.3,31.0,30.28,NNW,341,4.0,7.0,76,0.00,,,0.00,0,weatherlink.com 1.10,2013-12-01 22:44:00,
2013-12-01 23:59:00,38.9,32.0,30.27,WSW,248,5.0,8.0,75,0.00,,,0.00,0,weatherlink.com 1.10,2013-12-01 22:59:00,